createdAt,value
2022-08-11T00:01:21.108Z,4.90
2022-08-11T00:03:53.189Z,5.03
2022-08-11T00:06:29.685Z,4.60
2022-08-11T00:08:57.443Z,6.20
2022-08-11T00:11:38.887Z,9.45
2022-08-11T00:14:24.123Z,5.30
2022-08-11T00:17:10.786Z,5.03
2022-08-11T00:20:14.732Z,383.35
2022-08-11T00:22:31.069Z,220.60
2022-08-11T00:25:02.634Z,498.42
2022-08-11T00:27:38.281Z,662.58
2022-08-11T00:30:10.676Z,187.33
2022-08-11T00:32:39.076Z,176.73
2022-08-11T00:35:53.664Z,6.30
2022-08-11T00:37:59.849Z,7.00
2022-08-11T00:40:59.434Z,13.00
2022-08-11T00:43:29.112Z,7.73
2022-08-11T00:46:05.019Z,66.47
2022-08-11T00:48:34.823Z,216.10
2022-08-11T00:51:10.353Z,518.42
2022-08-11T00:54:01.238Z,133.27
2022-08-11T00:56:50.429Z,1366.13
2022-08-11T00:59:38.266Z,1320.13
2022-08-11T01:02:37.672Z,956.25
2022-08-11T01:05:30.550Z,1043.38
2022-08-11T01:08:01.181Z,1155.60
2022-08-11T01:10:51.087Z,1308.88
2022-08-11T01:14:08.065Z,753.63
2022-08-11T01:16:59.498Z,1142.90
2022-08-11T01:20:45.684Z,1179.88
2022-08-11T01:22:37.862Z,1239.85
2022-08-11T01:25:23.034Z,1239.53
2022-08-11T01:28:27.802Z,703.00
2022-08-11T01:31:29.273Z,1291.50
2022-08-11T01:34:15.946Z,1375.65
2022-08-11T01:36:58.917Z,1302.35
2022-08-11T01:39:56.058Z,1337.10
2022-08-11T01:43:09.143Z,1134.57
2022-08-11T01:45:49.076Z,106.25
2022-08-11T01:48:34.544Z,666.30
2022-08-11T01:51:45.092Z,1119.68
2022-08-11T01:54:40.439Z,829.00
2022-08-11T01:57:13.073Z,723.00
2022-08-11T01:59:51.293Z,1233.38
2022-08-11T02:02:47.529Z,761.60
2022-08-11T02:05:36.281Z,868.90
2022-08-11T02:08:19.693Z,1341.60
2022-08-11T02:11:30.400Z,985.35
2022-08-11T02:14:22.400Z,1321.47
2022-08-11T02:16:53.309Z,1151.50
2022-08-11T02:20:13.649Z,1224.07
2022-08-11T02:24:04.912Z,1188.50
2022-08-11T02:26:26.835Z,1301.90
2022-08-11T02:29:14.613Z,694.25
2022-08-11T02:32:28.903Z,1027.57
2022-08-11T02:35:42.844Z,662.33
2022-08-11T02:39:00.816Z,360.48
2022-08-11T02:42:07.348Z,177.43
2022-08-11T02:45:23.035Z,14.10
2022-08-11T02:48:25.068Z,44.22
2022-08-11T02:51:01.029Z,102.82
2022-08-11T02:53:37.436Z,74.00
2022-08-11T02:56:17.973Z,16.57
2022-08-11T02:59:27.154Z,307.67
2022-08-11T03:02:18.416Z,92.63
2022-08-11T03:05:13.664Z,44.50
2022-08-11T03:07:40.383Z,292.23
2022-08-11T03:11:08.343Z,103.97
2022-08-11T03:13:59.920Z,638.78
2022-08-11T03:16:48.198Z,385.35
2022-08-11T03:19:33.624Z,479.92
2022-08-11T03:22:19.177Z,529.17
2022-08-11T03:25:15.682Z,705.28
2022-08-11T03:28:20.838Z,596.72
2022-08-11T03:30:56.841Z,728.40
2022-08-11T03:33:44.548Z,1015.45
2022-08-11T03:36:17.135Z,1245.25
2022-08-11T03:38:55.720Z,1139.57
2022-08-11T03:42:02.026Z,1358.85
2022-08-11T03:44:40.524Z,1376.03
2022-08-11T03:47:29.956Z,1350.95
2022-08-11T03:50:20.072Z,1369.63
2022-08-11T03:52:53.758Z,1356.22
2022-08-11T03:55:38.848Z,1368.65
2022-08-11T03:58:31.986Z,1040.90
2022-08-11T04:01:26.498Z,725.75
2022-08-11T04:04:50.704Z,988.58
2022-08-11T04:07:42.609Z,893.45
2022-08-11T04:10:59.765Z,1015.67
2022-08-11T04:13:29.199Z,864.47
2022-08-11T04:16:21.770Z,1011.03
2022-08-11T04:18:54.211Z,870.22
2022-08-11T04:21:49.783Z,800.03
2022-08-11T04:24:35.148Z,1151.78
2022-08-11T04:27:41.142Z,1028.20
2022-08-11T04:30:14.851Z,1027.95
2022-08-11T04:33:09.520Z,1018.05
2022-08-11T04:35:57.500Z,896.03
2022-08-11T04:39:00.023Z,945.88
2022-08-11T04:42:10.704Z,897.27
2022-08-11T04:45:05.384Z,840.13
2022-08-11T04:48:40.265Z,821.45
2022-08-11T04:51:44.052Z,759.10
2022-08-11T04:54:38.062Z,741.83
2022-08-11T04:57:33.138Z,570.40
2022-08-11T05:00:30.698Z,1324.60
2022-08-11T05:03:06.081Z,1220.83
2022-08-11T05:06:03.389Z,1217.93
2022-08-11T05:08:52.765Z,1359.40
2022-08-11T05:11:40.599Z,1355.15
2022-08-11T05:14:59.577Z,1359.75
2022-08-11T05:18:15.746Z,1354.05
2022-08-11T05:21:12.507Z,1377.25
2022-08-11T05:24:02.439Z,1375.75
2022-08-11T05:26:55.463Z,1380.97
2022-08-11T05:29:58.607Z,1357.57
2022-08-11T05:32:48.677Z,1387.95
2022-08-11T05:36:00.537Z,1359.82
2022-08-11T05:38:39.798Z,1325.05
2022-08-11T05:41:26.291Z,1345.25
2022-08-11T05:44:20.234Z,1337.80
2022-08-11T05:47:08.930Z,1344.93
2022-08-11T05:49:57.884Z,1339.65
2022-08-11T05:52:56.545Z,1239.97
2022-08-11T05:55:53.986Z,1326.82
2022-08-11T05:58:57.193Z,1333.43
2022-08-11T06:01:32.035Z,1334.00
2022-08-11T06:04:14.669Z,1334.15
2022-08-11T06:07:02.956Z,1322.85
2022-08-11T06:09:46.897Z,1333.63
2022-08-11T06:12:21.883Z,1322.68
2022-08-11T06:14:53.800Z,1332.68
2022-08-11T06:17:26.285Z,1344.53
2022-08-11T06:20:13.069Z,1341.47
2022-08-11T06:22:43.717Z,1344.00
2022-08-11T06:25:12.434Z,1340.88
2022-08-11T06:27:41.854Z,1341.50
2022-08-11T06:30:13.984Z,1347.82
2022-08-11T06:32:45.916Z,1347.85
2022-08-11T06:35:23.601Z,1368.20
2022-08-11T06:37:59.146Z,1345.85
2022-08-11T06:40:42.021Z,1196.63
2022-08-11T06:43:23.639Z,1361.63
2022-08-11T06:46:08.104Z,1364.47
2022-08-11T06:48:39.245Z,1350.97
2022-08-11T06:51:12.808Z,1358.82
2022-08-11T06:54:03.017Z,1348.97
2022-08-11T06:57:12.580Z,1349.67
2022-08-11T07:00:02.596Z,1369.13
2022-08-11T07:02:37.245Z,1364.57
2022-08-11T07:05:17.430Z,1363.60
2022-08-11T07:08:34.853Z,1351.40
2022-08-11T07:11:44.048Z,1368.30
2022-08-11T07:14:33.879Z,1363.80
2022-08-11T07:17:05.469Z,1355.38
2022-08-11T07:19:50.821Z,1365.43
2022-08-11T07:22:44.804Z,1370.00
2022-08-11T07:25:33.718Z,1344.67
2022-08-11T07:28:23.138Z,1369.43
2022-08-11T07:30:58.481Z,1369.15
2022-08-11T07:34:07.042Z,1364.03
2022-08-11T07:36:44.613Z,1365.87
2022-08-11T07:39:20.990Z,1367.18
2022-08-11T07:41:49.850Z,1366.90
2022-08-11T07:44:17.909Z,1355.50
2022-08-11T07:47:08.724Z,1382.47
2022-08-11T07:49:56.619Z,1368.30
2022-08-11T07:52:30.880Z,1372.27
2022-08-11T07:55:03.955Z,1376.85
2022-08-11T07:58:14.210Z,1364.65
2022-08-11T08:01:01.278Z,1383.35
2022-08-11T08:03:54.360Z,1363.85
2022-08-11T08:06:41.012Z,1381.32
2022-08-11T08:09:27.530Z,1376.15
2022-08-11T08:12:13.916Z,1367.50
2022-08-11T08:14:59.492Z,1374.53
2022-08-11T08:18:09.915Z,1375.53
2022-08-11T08:20:37.949Z,1371.60
2022-08-11T08:23:05.971Z,1374.47
2022-08-11T08:25:35.494Z,1356.50
2022-08-11T08:28:06.214Z,1357.95
2022-08-11T08:30:49.801Z,1357.25
2022-08-11T08:33:21.516Z,1370.40
2022-08-11T08:35:54.192Z,1357.80
2022-08-11T08:38:23.092Z,1371.00
2022-08-11T08:40:55.807Z,1371.15
2022-08-11T08:43:24.438Z,1373.35
2022-08-11T08:45:55.393Z,1372.15
2022-08-11T08:48:25.883Z,1348.88
2022-08-11T08:51:21.989Z,1382.65
2022-08-11T08:53:53.783Z,1372.18
2022-08-11T08:56:30.523Z,1364.60
2022-08-11T08:59:00.386Z,1372.30
2022-08-11T09:01:31.219Z,1375.93
2022-08-11T09:04:05.098Z,1371.15
2022-08-11T09:06:35.569Z,1368.20
2022-08-11T09:09:02.757Z,1365.38
2022-08-11T09:11:48.011Z,1356.65
2022-08-11T09:14:15.653Z,1378.28
2022-08-11T09:16:43.813Z,1354.18
2022-08-11T09:19:13.846Z,1367.90
2022-08-11T09:22:12.382Z,1369.53
2022-08-11T09:24:59.096Z,1337.95
2022-08-11T09:27:27.409Z,1364.05
2022-08-11T09:29:55.748Z,1276.07
2022-08-11T09:32:23.571Z,1353.00
2022-08-11T09:34:52.163Z,1350.30
2022-08-11T09:37:54.295Z,1107.13
2022-08-11T09:40:30.503Z,1248.47
2022-08-11T09:43:23.552Z,1349.40
2022-08-11T09:45:52.527Z,1359.70
2022-08-11T09:48:28.140Z,1341.00
2022-08-11T09:51:00.401Z,1351.93
2022-08-11T09:53:37.140Z,1359.40
2022-08-11T09:56:35.346Z,1361.28
2022-08-11T09:59:04.503Z,1379.47
2022-08-11T10:01:34.887Z,1357.30
2022-08-11T10:04:11.646Z,1340.60
2022-08-11T10:06:58.396Z,1362.47
2022-08-11T10:09:26.475Z,1367.05
2022-08-11T10:11:58.475Z,1338.53
2022-08-11T10:14:45.923Z,1350.15
2022-08-11T10:17:14.943Z,1325.82
2022-08-11T10:19:45.603Z,1371.45
2022-08-11T10:22:50.903Z,1379.45
2022-08-11T10:25:36.187Z,1253.90
2022-08-11T10:28:17.182Z,1363.27
2022-08-11T10:31:13.778Z,1357.27
2022-08-11T10:34:01.920Z,1354.72
2022-08-11T10:36:50.737Z,1349.05
2022-08-11T10:39:22.019Z,1342.18
2022-08-11T10:42:12.297Z,1339.13
2022-08-11T10:44:44.588Z,1351.73
2022-08-11T10:47:34.533Z,1350.47
2022-08-11T10:50:28.385Z,1319.53
2022-08-11T10:53:16.416Z,1273.90
2022-08-11T10:58:48.408Z,1368.00
2022-08-11T11:01:24.334Z,1348.30
2022-08-11T11:03:52.730Z,1346.75
2022-08-11T11:06:50.702Z,1352.35
2022-08-11T11:09:24.239Z,1353.18
2022-08-11T11:12:15.217Z,1380.07
2022-08-11T11:15:02.082Z,1406.75
2022-08-11T11:17:52.016Z,1340.57
2022-08-11T11:20:47.465Z,1092.60
2022-08-11T11:23:25.451Z,1445.63
2022-08-11T11:26:11.382Z,1402.88
2022-08-11T11:28:47.216Z,1385.35
2022-08-11T11:31:42.752Z,1379.47
2022-08-11T11:34:28.367Z,1385.55
2022-08-11T11:37:00.753Z,1404.28
2022-08-11T11:39:30.310Z,1395.47
2022-08-11T11:42:04.265Z,1405.70
2022-08-11T11:44:33.132Z,1411.10
2022-08-11T11:47:01.386Z,1403.25
2022-08-11T11:49:30.042Z,1394.97
2022-08-11T11:51:59.275Z,1337.03
2022-08-11T11:54:30.136Z,1422.43
2022-08-11T11:57:18.764Z,1407.95
2022-08-11T12:00:04.638Z,1402.13
2022-08-11T12:02:31.619Z,1387.57
2022-08-11T12:04:58.827Z,1393.70
2022-08-11T12:08:04.953Z,1432.00
2022-08-11T12:10:39.071Z,1427.65
2022-08-11T12:13:25.143Z,1411.22
2022-08-11T12:16:31.875Z,1414.75
2022-08-11T12:18:42.800Z,1414.70
2022-08-11T12:21:11.459Z,1416.73
2022-08-11T12:24:04.098Z,1430.60
2022-08-11T12:27:15.128Z,1216.20
2022-08-11T12:29:41.170Z,1390.50
2022-08-11T12:32:11.383Z,95.75
2022-08-11T12:34:38.207Z,1338.50
2022-08-11T12:37:10.765Z,156.50
2022-08-11T12:40:10.837Z,69.70
2022-08-11T12:43:08.290Z,6.27
2022-08-11T12:45:48.839Z,6.25
2022-08-11T12:49:00.306Z,1214.75
2022-08-11T12:52:12.110Z,831.90
2022-08-11T12:54:49.807Z,1087.60
2022-08-11T12:57:42.902Z,1416.27
2022-08-11T13:00:29.097Z,1223.87
2022-08-11T13:03:14.640Z,1409.03
2022-08-11T13:05:44.927Z,1444.00
2022-08-11T13:08:15.298Z,1418.13
2022-08-11T13:11:02.053Z,893.63
2022-08-11T13:13:54.623Z,252.05
2022-08-11T13:16:17.697Z,859.25
2022-08-11T13:18:45.071Z,673.88
2022-08-11T13:21:20.603Z,1375.88
2022-08-11T13:23:59.728Z,697.38
2022-08-11T13:26:47.330Z,90.20
2022-08-11T13:29:26.388Z,423.45
2022-08-11T13:31:55.882Z,1383.40
2022-08-11T13:34:26.791Z,1439.10
2022-08-11T13:36:57.022Z,1349.60
2022-08-11T13:39:26.520Z,1147.95
2022-08-11T13:41:59.397Z,1329.88
2022-08-11T13:44:28.812Z,1448.43
2022-08-11T13:47:02.455Z,1130.60
2022-08-11T13:49:31.077Z,1381.60
2022-08-11T13:51:59.052Z,1444.93
2022-08-11T13:54:31.622Z,1456.82
2022-08-11T13:57:03.201Z,1464.35
2022-08-11T13:59:39.524Z,1044.35
2022-08-11T14:02:29.393Z,1119.60
2022-08-11T14:05:17.614Z,1085.75
2022-08-11T14:07:59.751Z,989.92
2022-08-11T14:10:30.131Z,841.43
2022-08-11T14:13:21.170Z,709.70
2022-08-11T14:15:50.024Z,782.80
2022-08-11T14:18:23.644Z,934.60
2022-08-11T14:21:14.794Z,724.85
2022-08-11T14:23:44.953Z,437.58
2022-08-11T14:26:28.196Z,131.23
2022-08-11T14:29:00.509Z,642.40
2022-08-11T14:31:30.187Z,558.15
2022-08-11T14:34:02.085Z,760.95
2022-08-11T14:36:35.165Z,592.78
2022-08-11T14:39:05.816Z,346.15
2022-08-11T14:42:09.835Z,249.93
2022-08-11T14:44:59.688Z,353.63
2022-08-11T14:47:29.996Z,842.13
2022-08-11T14:50:10.209Z,676.47
2022-08-11T14:52:59.584Z,1197.65
2022-08-11T14:55:47.840Z,1139.50
2022-08-11T14:58:20.229Z,865.50
2022-08-11T15:00:50.227Z,1338.80
2022-08-11T15:03:17.816Z,928.05
2022-08-11T15:05:58.424Z,1321.05
2022-08-11T15:08:56.853Z,23.33
2022-08-11T15:11:49.546Z,52.35
2022-08-11T15:14:41.435Z,21.27
2022-08-11T15:17:10.130Z,3.13
2022-08-11T15:19:59.630Z,337.97
2022-08-11T15:22:45.060Z,246.07
2022-08-11T15:25:12.394Z,259.40
2022-08-11T15:27:59.645Z,3.25
2022-08-11T15:30:47.269Z,3.00
2022-08-11T15:33:35.593Z,3.33
2022-08-11T15:36:25.460Z,2.25
2022-08-11T15:38:59.459Z,757.20
2022-08-11T15:41:59.038Z,186.67
2022-08-11T15:45:04.886Z,10.85
2022-08-11T15:47:44.490Z,4.20
2022-08-11T15:50:19.643Z,5.00
2022-08-11T15:53:17.357Z,4.90
2022-08-11T15:55:45.108Z,10.63
2022-08-11T15:58:31.747Z,3.28
2022-08-11T16:01:19.166Z,50.00
2022-08-11T16:04:12.544Z,8.32
2022-08-11T16:06:47.486Z,341.85
2022-08-11T16:09:19.112Z,577.47
2022-08-11T16:11:48.181Z,19.93
2022-08-11T16:14:35.899Z,4.32
2022-08-11T16:17:04.582Z,17.65
2022-08-11T16:19:36.030Z,3.42
2022-08-11T16:22:10.321Z,8.45
2022-08-11T16:27:03.578Z,37.15
2022-08-11T16:27:35.370Z,65.18
2022-08-11T16:30:03.773Z,569.92
2022-08-11T16:32:32.119Z,254.60
2022-08-11T16:35:24.895Z,3.00
2022-08-11T16:38:12.365Z,4.97
2022-08-11T16:40:41.587Z,362.85
2022-08-11T16:43:32.041Z,1061.25
2022-08-11T16:46:19.614Z,3.73
2022-08-11T16:48:48.648Z,225.85
2022-08-11T16:51:16.267Z,132.48
2022-08-11T16:53:59.607Z,779.10
2022-08-11T16:56:43.225Z,1433.18
2022-08-11T16:59:16.970Z,1195.68
2022-08-11T17:02:08.424Z,34.15
2022-08-11T17:05:09.533Z,784.92
2022-08-11T17:07:58.165Z,28.10
2022-08-11T17:10:55.431Z,62.25
2022-08-11T17:13:32.234Z,13.75
2022-08-11T17:16:09.367Z,192.87
2022-08-11T17:18:59.843Z,103.53
2022-08-11T17:21:29.842Z,402.58
2022-08-11T17:24:10.294Z,832.97
2022-08-11T17:26:55.647Z,1400.25
2022-08-11T17:29:53.856Z,958.08
2022-08-11T17:33:00.635Z,972.35
2022-08-11T17:35:38.686Z,1385.68
2022-08-11T17:38:10.263Z,1337.30
2022-08-11T17:41:05.203Z,1363.87
2022-08-11T17:43:51.746Z,1429.00
2022-08-11T17:46:38.260Z,5.47
2022-08-11T17:49:08.568Z,4.32
2022-08-11T17:51:55.932Z,65.80
2022-08-11T17:54:42.820Z,5.43
2022-08-11T17:57:30.086Z,12.27
2022-08-11T17:59:58.607Z,796.42
2022-08-11T18:02:57.909Z,387.33
2022-08-11T18:05:49.232Z,3.90
2022-08-11T18:08:37.973Z,4.68
2022-08-11T18:12:07.127Z,36.80
2022-08-11T18:14:33.101Z,3.28
2022-08-11T18:17:18.543Z,3.50
2022-08-11T18:20:04.161Z,4.00
2022-08-11T18:22:57.412Z,20.10
2022-08-11T18:25:49.304Z,19.83
2022-08-11T18:28:40.265Z,16.30
2022-08-11T18:31:30.216Z,6.85
2022-08-11T18:34:19.735Z,7.03
2022-08-11T18:37:25.986Z,11.50
2022-08-11T18:40:24.036Z,10.98
2022-08-11T18:43:11.489Z,5.57
2022-08-11T18:46:06.525Z,10.93
2022-08-11T18:48:56.485Z,1312.40
2022-08-11T18:51:44.390Z,1387.18
2022-08-11T18:54:32.516Z,1406.75
2022-08-11T18:57:22.509Z,1414.10
2022-08-11T19:00:10.444Z,1406.57
2022-08-11T19:02:58.521Z,1411.30
2022-08-11T19:06:32.595Z,1092.60
2022-08-11T19:08:58.123Z,1139.93
2022-08-11T19:11:45.129Z,1421.95
2022-08-11T19:14:32.195Z,1396.10
2022-08-11T19:17:44.141Z,974.40
2022-08-11T19:20:32.558Z,561.75
2022-08-11T19:23:18.414Z,1232.63
2022-08-11T19:26:05.886Z,978.83
2022-08-11T19:28:53.051Z,1094.80
2022-08-11T19:31:44.341Z,1213.50
2022-08-11T19:34:34.315Z,952.63
2022-08-11T19:37:24.622Z,1429.20
2022-08-11T19:40:16.795Z,1342.05
2022-08-11T19:43:03.465Z,1409.85
2022-08-11T19:45:52.663Z,1395.60
2022-08-11T19:48:41.276Z,1417.70
2022-08-11T19:51:28.900Z,1376.78
2022-08-11T19:54:15.504Z,1380.45
2022-08-11T19:57:03.089Z,1406.07
2022-08-11T19:59:50.373Z,1408.00
2022-08-11T20:02:36.337Z,1394.93
2022-08-11T20:05:23.442Z,1204.70
2022-08-11T20:08:09.568Z,1083.03
2022-08-11T20:10:56.415Z,1017.72
2022-08-11T20:13:44.668Z,1282.07
2022-08-11T20:16:33.394Z,1393.40
2022-08-11T20:19:25.994Z,1283.00
2022-08-11T20:22:26.691Z,1418.13
2022-08-11T20:25:13.470Z,1395.38
2022-08-11T20:28:02.051Z,1391.60
2022-08-11T20:30:51.828Z,1393.57
2022-08-11T20:33:39.551Z,1392.03
2022-08-11T20:36:26.113Z,1413.13
2022-08-11T20:39:13.459Z,1405.78
2022-08-11T20:42:00.500Z,1393.93
2022-08-11T20:44:47.482Z,1407.65
2022-08-11T20:47:56.076Z,972.55
2022-08-11T20:53:52.235Z,1402.35
2022-08-11T20:56:39.697Z,1091.03
2022-08-11T20:59:27.136Z,1237.43
2022-08-11T21:02:14.261Z,1377.10
2022-08-11T21:05:00.199Z,830.40
2022-08-11T21:10:59.405Z,1409.88
2022-08-11T21:13:48.260Z,1316.10
2022-08-11T21:16:42.226Z,1381.33
2022-08-11T21:20:00.793Z,1195.67
2022-08-11T21:22:59.417Z,1357.97
2022-08-11T21:25:59.353Z,1021.60
2022-08-11T21:28:46.949Z,1258.35
2022-08-11T21:31:34.051Z,447.30
2022-08-11T21:34:21.661Z,280.20
2022-08-11T21:37:08.626Z,987.00
2022-08-11T21:39:55.178Z,1262.05
2022-08-11T21:42:42.529Z,1315.97
2022-08-11T21:45:29.004Z,1381.18
2022-08-11T21:48:15.563Z,1132.05
2022-08-11T21:51:00.820Z,729.88
2022-08-11T21:53:46.749Z,1410.18
2022-08-11T21:56:33.483Z,1310.88
2022-08-11T21:59:20.455Z,1406.53
2022-08-11T22:02:12.446Z,1323.55
2022-08-11T22:04:59.814Z,1112.57
2022-08-11T22:07:45.875Z,842.28
2022-08-11T22:10:41.834Z,1407.53
2022-08-11T22:13:31.899Z,1349.95
2022-08-11T22:16:18.839Z,1361.43
2022-08-11T22:19:05.901Z,1153.03
2022-08-11T22:22:00.997Z,1360.22
2022-08-11T22:24:51.275Z,1029.22
2022-08-11T22:27:36.765Z,1161.45
2022-08-11T22:30:24.419Z,926.10
2022-08-11T22:33:11.045Z,1050.88
2022-08-11T22:35:59.488Z,1059.93
2022-08-11T22:38:46.081Z,1252.68
2022-08-11T22:41:31.728Z,1413.88
2022-08-11T22:44:17.534Z,1423.10
2022-08-11T22:47:03.594Z,1398.30
2022-08-11T22:49:57.672Z,1411.75
2022-08-11T22:52:45.173Z,1402.10
2022-08-11T22:55:31.385Z,1408.20
2022-08-11T22:58:17.278Z,1357.28
2022-08-11T23:01:03.283Z,1381.05
2022-08-11T23:03:50.147Z,1169.72
2022-08-11T23:06:38.134Z,1371.32
2022-08-11T23:09:25.252Z,1366.53
2022-08-11T23:12:11.787Z,1407.55
2022-08-11T23:14:59.580Z,1386.13
2022-08-11T23:17:46.568Z,1381.93
2022-08-11T23:20:43.149Z,1219.30
2022-08-11T23:23:33.689Z,1403.18
2022-08-11T23:26:19.530Z,1292.00
2022-08-11T23:29:06.273Z,945.83
2022-08-11T23:31:55.054Z,311.48
2022-08-11T23:35:04.162Z,886.28
2022-08-11T23:37:52.997Z,158.87
2022-08-11T23:40:38.559Z,7.80
2022-08-11T23:43:24.158Z,118.78
2022-08-11T23:46:09.690Z,260.33
2022-08-11T23:48:57.765Z,518.03
2022-08-11T23:51:45.151Z,551.15
2022-08-11T23:54:36.950Z,6.70
2022-08-11T23:57:23.659Z,4.47
